sensor_id;sensor_type;location;lat;lon;timestamp;P1;durP1;ratioP1;P2;durP2;ratioP2
58446;SDS011;44240;51.840;7.258;2024-02-16T00:02:01;2.40;;;1.13;;
58446;SDS011;44240;51.840;7.258;2024-02-16T00:04:28;4.28;;;1.30;;
58446;SDS011;44240;51.840;7.258;2024-02-16T00:06:55;4.05;;;1.30;;
58446;SDS011;44240;51.840;7.258;2024-02-16T00:09:22;1.83;;;0.98;;
58446;SDS011;44240;51.840;7.258;2024-02-16T00:11:49;5.43;;;1.17;;
58446;SDS011;44240;51.840;7.258;2024-02-16T00:14:18;2.42;;;1.00;;
58446;SDS011;44240;51.840;7.258;2024-02-16T00:16:47;1.58;;;1.13;;
58446;SDS011;44240;51.840;7.258;2024-02-16T00:19:14;2.28;;;1.23;;
58446;SDS011;44240;51.840;7.258;2024-02-16T00:21:41;3.72;;;1.23;;
58446;SDS011;44240;51.840;7.258;2024-02-16T00:24:09;2.17;;;1.00;;
58446;SDS011;44240;51.840;7.258;2024-02-16T00:26:36;2.08;;;1.10;;
58446;SDS011;44240;51.840;7.258;2024-02-16T00:29:05;2.42;;;0.82;;
58446;SDS011;44240;51.840;7.258;2024-02-16T00:31:32;4.80;;;1.17;;
58446;SDS011;44240;51.840;7.258;2024-02-16T00:33:59;2.28;;;1.23;;
58446;SDS011;44240;51.840;7.258;2024-02-16T00:36:26;2.58;;;1.20;;
58446;SDS011;44240;51.840;7.258;2024-02-16T00:38:54;3.00;;;1.40;;
58446;SDS011;44240;51.840;7.258;2024-02-16T00:41:22;3.40;;;1.27;;
58446;SDS011;44240;51.840;7.258;2024-02-16T00:43:49;4.43;;;1.33;;
58446;SDS011;44240;51.840;7.258;2024-02-16T00:46:18;3.92;;;1.50;;
58446;SDS011;44240;51.840;7.258;2024-02-16T00:48:45;3.13;;;1.48;;
58446;SDS011;44240;51.840;7.258;2024-02-16T00:51:13;3.08;;;1.27;;
58446;SDS011;44240;51.840;7.258;2024-02-16T00:53:40;2.50;;;1.05;;
58446;SDS011;44240;51.840;7.258;2024-02-16T00:56:07;2.75;;;1.10;;
58446;SDS011;44240;51.840;7.258;2024-02-16T00:58:35;2.72;;;1.20;;
58446;SDS011;44240;51.840;7.258;2024-02-16T01:01:03;1.80;;;1.13;;
58446;SDS011;44240;51.840;7.258;2024-02-16T01:03:30;3.47;;;1.10;;
58446;SDS011;44240;51.840;7.258;2024-02-16T01:05:58;1.65;;;1.20;;
58446;SDS011;44240;51.840;7.258;2024-02-16T01:08:24;2.03;;;1.00;;
58446;SDS011;44240;51.840;7.258;2024-02-16T01:10:53;2.78;;;1.20;;
58446;SDS011;44240;51.840;7.258;2024-02-16T01:13:20;3.08;;;1.02;;
58446;SDS011;44240;51.840;7.258;2024-02-16T01:15:47;5.68;;;1.50;;
58446;SDS011;44240;51.840;7.258;2024-02-16T01:18:13;1.33;;;1.00;;
58446;SDS011;44240;51.840;7.258;2024-02-16T01:20:41;2.78;;;1.00;;
58446;SDS011;44240;51.840;7.258;2024-02-16T01:23:07;2.33;;;1.20;;
58446;SDS011;44240;51.840;7.258;2024-02-16T01:25:34;2.97;;;1.27;;
58446;SDS011;44240;51.840;7.258;2024-02-16T01:28:01;2.40;;;1.20;;
58446;SDS011;44240;51.840;7.258;2024-02-16T01:30:28;2.47;;;0.90;;
58446;SDS011;44240;51.840;7.258;2024-02-16T01:32:54;3.40;;;1.20;;
58446;SDS011;44240;51.840;7.258;2024-02-16T01:35:21;2.08;;;1.13;;
58446;SDS011;44240;51.840;7.258;2024-02-16T01:37:48;2.38;;;0.90;;
58446;SDS011;44240;51.840;7.258;2024-02-16T01:40:15;1.42;;;0.90;;
58446;SDS011;44240;51.840;7.258;2024-02-16T01:42:43;4.97;;;1.45;;
58446;SDS011;44240;51.840;7.258;2024-02-16T01:45:10;1.67;;;1.15;;
58446;SDS011;44240;51.840;7.258;2024-02-16T01:47:41;2.08;;;1.20;;
58446;SDS011;44240;51.840;7.258;2024-02-16T01:50:14;2.00;;;1.40;;
58446;SDS011;44240;51.840;7.258;2024-02-16T01:52:42;2.67;;;1.00;;
58446;SDS011;44240;51.840;7.258;2024-02-16T01:55:10;2.63;;;1.20;;
58446;SDS011;44240;51.840;7.258;2024-02-16T01:57:45;1.95;;;1.02;;
58446;SDS011;44240;51.840;7.258;2024-02-16T02:00:14;2.72;;;1.30;;
58446;SDS011;44240;51.840;7.258;2024-02-16T02:02:43;5.68;;;1.30;;
58446;SDS011;44240;51.840;7.258;2024-02-16T02:05:12;2.22;;;1.05;;
58446;SDS011;44240;51.840;7.258;2024-02-16T02:07:39;5.15;;;1.30;;
58446;SDS011;44240;51.840;7.258;2024-02-16T02:10:07;2.05;;;1.05;;
58446;SDS011;44240;51.840;7.258;2024-02-16T02:12:34;3.35;;;1.10;;
58446;SDS011;44240;51.840;7.258;2024-02-16T02:15:00;3.22;;;1.13;;
58446;SDS011;44240;51.840;7.258;2024-02-16T02:17:29;2.20;;;1.05;;
58446;SDS011;44240;51.840;7.258;2024-02-16T02:19:56;3.08;;;1.58;;
58446;SDS011;44240;51.840;7.258;2024-02-16T02:22:22;3.13;;;1.10;;
58446;SDS011;44240;51.840;7.258;2024-02-16T02:24:49;2.95;;;1.00;;
58446;SDS011;44240;51.840;7.258;2024-02-16T02:27:16;3.97;;;0.90;;
58446;SDS011;44240;51.840;7.258;2024-02-16T02:29:43;5.18;;;2.20;;
58446;SDS011;44240;51.840;7.258;2024-02-16T02:32:10;3.25;;;1.13;;
58446;SDS011;44240;51.840;7.258;2024-02-16T02:34:38;3.35;;;1.10;;
58446;SDS011;44240;51.840;7.258;2024-02-16T02:37:06;3.38;;;1.13;;
58446;SDS011;44240;51.840;7.258;2024-02-16T02:39:33;1.60;;;1.00;;
58446;SDS011;44240;51.840;7.258;2024-02-16T02:42:00;4.55;;;1.30;;
58446;SDS011;44240;51.840;7.258;2024-02-16T02:44:27;4.00;;;1.10;;
58446;SDS011;44240;51.840;7.258;2024-02-16T02:46:54;1.90;;;1.27;;
58446;SDS011;44240;51.840;7.258;2024-02-16T02:49:20;1.42;;;1.15;;
58446;SDS011;44240;51.840;7.258;2024-02-16T02:51:47;1.50;;;1.00;;
58446;SDS011;44240;51.840;7.258;2024-02-16T02:54:14;3.15;;;1.30;;
58446;SDS011;44240;51.840;7.258;2024-02-16T02:56:41;2.80;;;1.10;;
58446;SDS011;44240;51.840;7.258;2024-02-16T02:59:08;1.50;;;0.98;;
58446;SDS011;44240;51.840;7.258;2024-02-16T03:01:36;3.60;;;1.35;;
58446;SDS011;44240;51.840;7.258;2024-02-16T03:04:03;2.50;;;1.27;;
58446;SDS011;44240;51.840;7.258;2024-02-16T03:06:30;2.17;;;0.82;;
58446;SDS011;44240;51.840;7.258;2024-02-16T03:08:57;6.00;;;1.30;;
58446;SDS011;44240;51.840;7.258;2024-02-16T03:11:24;2.42;;;1.02;;
58446;SDS011;44240;51.840;7.258;2024-02-16T03:13:52;2.90;;;1.15;;
58446;SDS011;44240;51.840;7.258;2024-02-16T03:16:19;2.22;;;1.15;;
58446;SDS011;44240;51.840;7.258;2024-02-16T03:18:46;3.33;;;1.30;;
58446;SDS011;44240;51.840;7.258;2024-02-16T03:21:13;3.50;;;1.30;;
58446;SDS011;44240;51.840;7.258;2024-02-16T03:23:43;3.05;;;1.50;;
58446;SDS011;44240;51.840;7.258;2024-02-16T03:26:14;4.35;;;1.30;;
58446;SDS011;44240;51.840;7.258;2024-02-16T03:28:45;5.00;;;1.20;;
58446;SDS011;44240;51.840;7.258;2024-02-16T03:33:47;3.05;;;1.45;;
58446;SDS011;44240;51.840;7.258;2024-02-16T03:36:15;2.63;;;1.05;;
58446;SDS011;44240;51.840;7.258;2024-02-16T03:38:46;3.25;;;1.40;;
58446;SDS011;44240;51.840;7.258;2024-02-16T03:41:21;2.25;;;0.98;;
58446;SDS011;44240;51.840;7.258;2024-02-16T03:43:49;2.67;;;1.10;;
58446;SDS011;44240;51.840;7.258;2024-02-16T03:46:17;3.28;;;1.30;;
58446;SDS011;44240;51.840;7.258;2024-02-16T03:48:44;2.60;;;1.15;;
58446;SDS011;44240;51.840;7.258;2024-02-16T03:51:12;3.92;;;1.50;;
58446;SDS011;44240;51.840;7.258;2024-02-16T03:53:38;2.78;;;1.30;;
58446;SDS011;44240;51.840;7.258;2024-02-16T03:56:05;4.70;;;1.20;;
58446;SDS011;44240;51.840;7.258;2024-02-16T03:58:33;5.18;;;1.58;;
58446;SDS011;44240;51.840;7.258;2024-02-16T04:01:00;2.83;;;1.38;;
58446;SDS011;44240;51.840;7.258;2024-02-16T04:03:27;2.88;;;1.13;;
58446;SDS011;44240;51.840;7.258;2024-02-16T04:05:54;3.75;;;1.25;;
58446;SDS011;44240;51.840;7.258;2024-02-16T04:08:21;2.55;;;1.13;;
58446;SDS011;44240;51.840;7.258;2024-02-16T04:10:48;4.32;;;1.30;;
58446;SDS011;44240;51.840;7.258;2024-02-16T04:13:15;3.05;;;1.45;;
58446;SDS011;44240;51.840;7.258;2024-02-16T04:15:41;2.85;;;1.00;;
58446;SDS011;44240;51.840;7.258;2024-02-16T04:18:09;3.10;;;1.27;;
58446;SDS011;44240;51.840;7.258;2024-02-16T04:20:36;2.17;;;1.35;;
58446;SDS011;44240;51.840;7.258;2024-02-16T04:23:04;2.25;;;1.02;;
58446;SDS011;44240;51.840;7.258;2024-02-16T04:25:31;3.40;;;1.70;;
58446;SDS011;44240;51.840;7.258;2024-02-16T04:27:57;1.45;;;1.02;;
58446;SDS011;44240;51.840;7.258;2024-02-16T04:30:24;3.13;;;1.33;;
58446;SDS011;44240;51.840;7.258;2024-02-16T04:32:51;3.97;;;1.60;;
58446;SDS011;44240;51.840;7.258;2024-02-16T04:35:18;3.40;;;1.25;;
58446;SDS011;44240;51.840;7.258;2024-02-16T04:37:45;2.35;;;1.27;;
58446;SDS011;44240;51.840;7.258;2024-02-16T04:40:12;2.58;;;1.15;;
58446;SDS011;44240;51.840;7.258;2024-02-16T04:42:39;1.98;;;1.27;;
58446;SDS011;44240;51.840;7.258;2024-02-16T04:45:11;1.63;;;1.08;;
58446;SDS011;44240;51.840;7.258;2024-02-16T04:47:39;2.40;;;1.30;;
58446;SDS011;44240;51.840;7.258;2024-02-16T04:50:06;1.80;;;1.20;;
58446;SDS011;44240;51.840;7.258;2024-02-16T04:52:36;1.73;;;1.10;;
58446;SDS011;44240;51.840;7.258;2024-02-16T04:55:04;3.22;;;1.13;;
58446;SDS011;44240;51.840;7.258;2024-02-16T04:57:33;2.88;;;1.15;;
58446;SDS011;44240;51.840;7.258;2024-02-16T05:00:00;2.30;;;1.33;;
58446;SDS011;44240;51.840;7.258;2024-02-16T05:02:26;2.75;;;1.35;;
58446;SDS011;44240;51.840;7.258;2024-02-16T05:04:53;2.30;;;1.60;;
58446;SDS011;44240;51.840;7.258;2024-02-16T05:07:20;3.55;;;1.10;;
58446;SDS011;44240;51.840;7.258;2024-02-16T05:09:47;2.42;;;1.20;;
58446;SDS011;44240;51.840;7.258;2024-02-16T05:12:15;2.95;;;1.20;;
58446;SDS011;44240;51.840;7.258;2024-02-16T05:14:47;3.85;;;1.08;;
58446;SDS011;44240;51.840;7.258;2024-02-16T05:17:17;2.70;;;1.25;;
58446;SDS011;44240;51.840;7.258;2024-02-16T05:19:45;2.03;;;1.42;;
58446;SDS011;44240;51.840;7.258;2024-02-16T05:22:11;2.83;;;1.27;;
58446;SDS011;44240;51.840;7.258;2024-02-16T05:24:38;2.25;;;1.27;;
58446;SDS011;44240;51.840;7.258;2024-02-16T05:27:05;3.50;;;1.55;;
58446;SDS011;44240;51.840;7.258;2024-02-16T05:29:32;2.80;;;1.38;;
58446;SDS011;44240;51.840;7.258;2024-02-16T05:31:58;1.92;;;1.25;;
58446;SDS011;44240;51.840;7.258;2024-02-16T05:34:25;2.95;;;1.60;;
58446;SDS011;44240;51.840;7.258;2024-02-16T05:36:52;2.15;;;1.20;;
58446;SDS011;44240;51.840;7.258;2024-02-16T05:39:19;4.57;;;1.48;;
58446;SDS011;44240;51.840;7.258;2024-02-16T05:41:47;1.90;;;1.27;;
58446;SDS011;44240;51.840;7.258;2024-02-16T05:44:14;4.10;;;1.30;;
58446;SDS011;44240;51.840;7.258;2024-02-16T05:46:41;2.00;;;1.30;;
58446;SDS011;44240;51.840;7.258;2024-02-16T05:49:08;2.35;;;1.35;;
58446;SDS011;44240;51.840;7.258;2024-02-16T05:51:37;2.72;;;1.52;;
58446;SDS011;44240;51.840;7.258;2024-02-16T05:54:08;1.88;;;1.15;;
58446;SDS011;44240;51.840;7.258;2024-02-16T05:56:35;2.47;;;1.00;;
58446;SDS011;44240;51.840;7.258;2024-02-16T05:59:03;2.90;;;1.30;;
58446;SDS011;44240;51.840;7.258;2024-02-16T06:01:30;3.15;;;1.70;;
58446;SDS011;44240;51.840;7.258;2024-02-16T06:03:56;4.13;;;1.60;;
58446;SDS011;44240;51.840;7.258;2024-02-16T06:06:23;3.55;;;1.75;;
58446;SDS011;44240;51.840;7.258;2024-02-16T06:08:50;4.72;;;1.70;;
58446;SDS011;44240;51.840;7.258;2024-02-16T06:11:17;2.72;;;1.23;;
58446;SDS011;44240;51.840;7.258;2024-02-16T06:13:44;1.83;;;1.30;;
58446;SDS011;44240;51.840;7.258;2024-02-16T06:16:10;2.63;;;1.35;;
58446;SDS011;44240;51.840;7.258;2024-02-16T06:18:37;3.50;;;1.70;;
58446;SDS011;44240;51.840;7.258;2024-02-16T06:21:04;2.17;;;1.50;;
58446;SDS011;44240;51.840;7.258;2024-02-16T06:23:31;2.47;;;1.05;;
58446;SDS011;44240;51.840;7.258;2024-02-16T06:25:58;3.70;;;1.25;;
58446;SDS011;44240;51.840;7.258;2024-02-16T06:28:25;2.25;;;1.25;;
58446;SDS011;44240;51.840;7.258;2024-02-16T06:30:51;2.85;;;1.42;;
58446;SDS011;44240;51.840;7.258;2024-02-16T06:33:18;2.38;;;1.30;;
58446;SDS011;44240;51.840;7.258;2024-02-16T06:35:46;5.22;;;1.70;;
58446;SDS011;44240;51.840;7.258;2024-02-16T06:38:14;1.80;;;1.45;;
58446;SDS011;44240;51.840;7.258;2024-02-16T06:40:41;3.03;;;1.65;;
58446;SDS011;44240;51.840;7.258;2024-02-16T06:43:08;3.17;;;1.40;;
58446;SDS011;44240;51.840;7.258;2024-02-16T06:45:35;2.80;;;1.80;;
58446;SDS011;44240;51.840;7.258;2024-02-16T06:48:02;2.58;;;1.27;;
58446;SDS011;44240;51.840;7.258;2024-02-16T06:50:29;2.30;;;1.27;;
58446;SDS011;44240;51.840;7.258;2024-02-16T06:52:56;3.03;;;1.60;;
58446;SDS011;44240;51.840;7.258;2024-02-16T06:55:23;3.17;;;1.50;;
58446;SDS011;44240;51.840;7.258;2024-02-16T06:57:49;5.53;;;1.80;;
58446;SDS011;44240;51.840;7.258;2024-02-16T07:00:17;3.47;;;1.70;;
58446;SDS011;44240;51.840;7.258;2024-02-16T07:02:46;2.65;;;1.50;;
58446;SDS011;44240;51.840;7.258;2024-02-16T07:05:13;1.85;;;1.20;;
58446;SDS011;44240;51.840;7.258;2024-02-16T07:07:40;3.85;;;1.33;;
58446;SDS011;44240;51.840;7.258;2024-02-16T07:10:07;2.20;;;1.48;;
58446;SDS011;44240;51.840;7.258;2024-02-16T07:12:39;3.22;;;1.50;;
58446;SDS011;44240;51.840;7.258;2024-02-16T07:15:06;3.88;;;1.30;;
58446;SDS011;44240;51.840;7.258;2024-02-16T07:17:34;5.47;;;1.95;;
58446;SDS011;44240;51.840;7.258;2024-02-16T07:20:02;3.47;;;1.80;;
58446;SDS011;44240;51.840;7.258;2024-02-16T07:22:30;4.18;;;1.63;;
58446;SDS011;44240;51.840;7.258;2024-02-16T07:24:59;3.72;;;1.60;;
58446;SDS011;44240;51.840;7.258;2024-02-16T07:27:26;3.30;;;1.60;;
58446;SDS011;44240;51.840;7.258;2024-02-16T07:29:53;2.35;;;1.50;;
58446;SDS011;44240;51.840;7.258;2024-02-16T07:32:20;3.15;;;1.58;;
58446;SDS011;44240;51.840;7.258;2024-02-16T07:34:47;4.05;;;1.70;;
58446;SDS011;44240;51.840;7.258;2024-02-16T07:37:14;3.45;;;1.60;;
58446;SDS011;44240;51.840;7.258;2024-02-16T07:39:42;2.40;;;1.45;;
58446;SDS011;44240;51.840;7.258;2024-02-16T07:42:09;3.05;;;1.77;;
58446;SDS011;44240;51.840;7.258;2024-02-16T07:44:36;2.47;;;1.50;;
58446;SDS011;44240;51.840;7.258;2024-02-16T07:47:03;3.58;;;2.05;;
58446;SDS011;44240;51.840;7.258;2024-02-16T07:49:30;3.28;;;1.63;;
58446;SDS011;44240;51.840;7.258;2024-02-16T07:51:57;3.15;;;1.65;;
58446;SDS011;44240;51.840;7.258;2024-02-16T07:54:24;3.28;;;1.83;;
58446;SDS011;44240;51.840;7.258;2024-02-16T07:56:51;2.30;;;1.42;;
58446;SDS011;44240;51.840;7.258;2024-02-16T07:59:18;3.00;;;1.70;;
58446;SDS011;44240;51.840;7.258;2024-02-16T08:01:45;4.50;;;1.75;;
58446;SDS011;44240;51.840;7.258;2024-02-16T08:04:12;2.38;;;1.30;;
58446;SDS011;44240;51.840;7.258;2024-02-16T08:06:39;3.30;;;1.73;;
58446;SDS011;44240;51.840;7.258;2024-02-16T08:09:06;3.20;;;1.80;;
58446;SDS011;44240;51.840;7.258;2024-02-16T08:11:33;3.67;;;1.77;;
58446;SDS011;44240;51.840;7.258;2024-02-16T08:14:00;4.50;;;1.58;;
58446;SDS011;44240;51.840;7.258;2024-02-16T08:16:27;3.35;;;1.85;;
58446;SDS011;44240;51.840;7.258;2024-02-16T08:18:54;4.32;;;1.90;;
58446;SDS011;44240;51.840;7.258;2024-02-16T08:21:21;3.40;;;1.92;;
58446;SDS011;44240;51.840;7.258;2024-02-16T08:23:48;3.33;;;1.83;;
58446;SDS011;44240;51.840;7.258;2024-02-16T08:26:14;4.07;;;2.30;;
58446;SDS011;44240;51.840;7.258;2024-02-16T08:28:43;2.35;;;1.95;;
58446;SDS011;44240;51.840;7.258;2024-02-16T08:31:14;3.17;;;1.98;;
58446;SDS011;44240;51.840;7.258;2024-02-16T08:33:45;4.78;;;2.15;;
58446;SDS011;44240;51.840;7.258;2024-02-16T08:36:13;4.07;;;2.25;;
58446;SDS011;44240;51.840;7.258;2024-02-16T08:38:41;4.65;;;2.17;;
58446;SDS011;44240;51.840;7.258;2024-02-16T08:41:08;4.57;;;3.00;;
58446;SDS011;44240;51.840;7.258;2024-02-16T08:43:34;3.20;;;2.15;;
58446;SDS011;44240;51.840;7.258;2024-02-16T08:46:01;3.28;;;1.85;;
58446;SDS011;44240;51.840;7.258;2024-02-16T08:48:28;5.65;;;3.00;;
58446;SDS011;44240;51.840;7.258;2024-02-16T08:50:55;3.65;;;2.05;;
58446;SDS011;44240;51.840;7.258;2024-02-16T08:53:21;4.53;;;2.70;;
58446;SDS011;44240;51.840;7.258;2024-02-16T08:55:48;2.80;;;1.85;;
58446;SDS011;44240;51.840;7.258;2024-02-16T08:58:15;5.45;;;2.00;;
58446;SDS011;44240;51.840;7.258;2024-02-16T09:00:42;3.17;;;2.25;;
58446;SDS011;44240;51.840;7.258;2024-02-16T09:03:10;4.03;;;2.25;;
58446;SDS011;44240;51.840;7.258;2024-02-16T09:05:37;3.50;;;2.00;;
58446;SDS011;44240;51.840;7.258;2024-02-16T09:08:04;3.42;;;2.28;;
58446;SDS011;44240;51.840;7.258;2024-02-16T09:10:32;4.95;;;1.90;;
58446;SDS011;44240;51.840;7.258;2024-02-16T09:13:03;6.38;;;2.17;;
58446;SDS011;44240;51.840;7.258;2024-02-16T09:15:30;3.92;;;1.70;;
58446;SDS011;44240;51.840;7.258;2024-02-16T09:17:56;3.42;;;1.92;;
58446;SDS011;44240;51.840;7.258;2024-02-16T09:20:23;4.30;;;2.13;;
58446;SDS011;44240;51.840;7.258;2024-02-16T09:22:50;3.70;;;2.30;;
58446;SDS011;44240;51.840;7.258;2024-02-16T09:25:17;3.08;;;1.70;;
58446;SDS011;44240;51.840;7.258;2024-02-16T09:27:44;4.22;;;2.17;;
58446;SDS011;44240;51.840;7.258;2024-02-16T09:30:12;4.28;;;2.20;;
58446;SDS011;44240;51.840;7.258;2024-02-16T09:32:39;3.40;;;1.80;;
58446;SDS011;44240;51.840;7.258;2024-02-16T09:35:08;5.45;;;1.92;;
58446;SDS011;44240;51.840;7.258;2024-02-16T09:37:35;2.75;;;1.63;;
58446;SDS011;44240;51.840;7.258;2024-02-16T09:40:03;3.33;;;1.92;;
58446;SDS011;44240;51.840;7.258;2024-02-16T09:42:31;3.70;;;1.80;;
58446;SDS011;44240;51.840;7.258;2024-02-16T09:45:04;4.18;;;2.00;;
58446;SDS011;44240;51.840;7.258;2024-02-16T09:47:33;5.07;;;2.10;;
58446;SDS011;44240;51.840;7.258;2024-02-16T09:50:01;6.22;;;2.13;;
58446;SDS011;44240;51.840;7.258;2024-02-16T09:52:29;3.67;;;2.00;;
58446;SDS011;44240;51.840;7.258;2024-02-16T09:54:56;3.25;;;2.00;;
58446;SDS011;44240;51.840;7.258;2024-02-16T09:57:23;4.53;;;1.90;;
58446;SDS011;44240;51.840;7.258;2024-02-16T09:59:50;4.30;;;2.05;;
58446;SDS011;44240;51.840;7.258;2024-02-16T10:02:17;2.90;;;1.90;;
58446;SDS011;44240;51.840;7.258;2024-02-16T10:04:44;3.08;;;1.95;;
58446;SDS011;44240;51.840;7.258;2024-02-16T10:07:11;5.18;;;2.67;;
58446;SDS011;44240;51.840;7.258;2024-02-16T10:09:39;4.43;;;2.60;;
58446;SDS011;44240;51.840;7.258;2024-02-16T10:12:08;4.65;;;1.90;;
58446;SDS011;44240;51.840;7.258;2024-02-16T10:14:36;5.35;;;1.92;;
58446;SDS011;44240;51.840;7.258;2024-02-16T10:17:05;2.70;;;1.83;;
58446;SDS011;44240;51.840;7.258;2024-02-16T10:19:33;5.65;;;2.45;;
58446;SDS011;44240;51.840;7.258;2024-02-16T10:22:11;3.60;;;2.00;;
58446;SDS011;44240;51.840;7.258;2024-02-16T10:24:40;6.40;;;2.20;;
58446;SDS011;44240;51.840;7.258;2024-02-16T10:27:15;3.97;;;2.25;;
58446;SDS011;44240;51.840;7.258;2024-02-16T10:29:43;4.35;;;2.03;;
58446;SDS011;44240;51.840;7.258;2024-02-16T10:32:11;4.10;;;2.50;;
58446;SDS011;44240;51.840;7.258;2024-02-16T10:34:39;4.32;;;2.10;;
58446;SDS011;44240;51.840;7.258;2024-02-16T10:37:07;4.45;;;1.98;;
58446;SDS011;44240;51.840;7.258;2024-02-16T10:39:35;5.45;;;2.10;;
58446;SDS011;44240;51.840;7.258;2024-02-16T10:42:05;3.75;;;2.22;;
58446;SDS011;44240;51.840;7.258;2024-02-16T10:44:32;6.22;;;2.63;;
58446;SDS011;44240;51.840;7.258;2024-02-16T10:47:02;3.38;;;2.53;;
58446;SDS011;44240;51.840;7.258;2024-02-16T10:49:30;5.13;;;2.53;;
58446;SDS011;44240;51.840;7.258;2024-02-16T10:51:58;4.03;;;2.50;;
58446;SDS011;44240;51.840;7.258;2024-02-16T10:54:27;3.45;;;2.60;;
58446;SDS011;44240;51.840;7.258;2024-02-16T10:56:56;6.90;;;2.63;;
58446;SDS011;44240;51.840;7.258;2024-02-16T10:59:23;6.30;;;2.25;;
58446;SDS011;44240;51.840;7.258;2024-02-16T11:01:58;4.03;;;2.30;;
58446;SDS011;44240;51.840;7.258;2024-02-16T11:04:35;3.78;;;1.95;;
58446;SDS011;44240;51.840;7.258;2024-02-16T11:07:10;3.08;;;2.40;;
58446;SDS011;44240;51.840;7.258;2024-02-16T11:09:39;3.38;;;2.20;;
58446;SDS011;44240;51.840;7.258;2024-02-16T11:12:06;5.72;;;2.78;;
58446;SDS011;44240;51.840;7.258;2024-02-16T11:14:39;5.95;;;2.30;;
58446;SDS011;44240;51.840;7.258;2024-02-16T11:17:10;8.00;;;2.72;;
58446;SDS011;44240;51.840;7.258;2024-02-16T11:19:41;4.97;;;3.05;;
58446;SDS011;44240;51.840;7.258;2024-02-16T11:22:10;4.80;;;2.50;;
58446;SDS011;44240;51.840;7.258;2024-02-16T11:24:47;6.13;;;2.97;;
58446;SDS011;44240;51.840;7.258;2024-02-16T11:27:16;5.75;;;3.05;;
58446;SDS011;44240;51.840;7.258;2024-02-16T11:29:48;6.10;;;2.83;;
58446;SDS011;44240;51.840;7.258;2024-02-16T11:32:15;5.38;;;3.28;;
58446;SDS011;44240;51.840;7.258;2024-02-16T11:34:44;4.88;;;2.58;;
58446;SDS011;44240;51.840;7.258;2024-02-16T11:37:12;5.63;;;2.90;;
58446;SDS011;44240;51.840;7.258;2024-02-16T11:39:39;5.28;;;2.60;;
58446;SDS011;44240;51.840;7.258;2024-02-16T11:42:11;7.25;;;2.83;;
58446;SDS011;44240;51.840;7.258;2024-02-16T11:44:40;8.70;;;3.42;;
58446;SDS011;44240;51.840;7.258;2024-02-16T11:47:19;7.78;;;3.10;;
58446;SDS011;44240;51.840;7.258;2024-02-16T11:50:01;5.72;;;2.67;;
58446;SDS011;44240;51.840;7.258;2024-02-16T11:52:32;6.45;;;3.15;;
58446;SDS011;44240;51.840;7.258;2024-02-16T11:55:00;4.95;;;2.63;;
58446;SDS011;44240;51.840;7.258;2024-02-16T11:57:29;4.15;;;2.75;;
58446;SDS011;44240;51.840;7.258;2024-02-16T11:59:58;5.30;;;2.83;;
58446;SDS011;44240;51.840;7.258;2024-02-16T12:02:26;4.80;;;2.85;;
58446;SDS011;44240;51.840;7.258;2024-02-16T12:04:59;3.35;;;2.55;;
58446;SDS011;44240;51.840;7.258;2024-02-16T12:07:30;6.07;;;3.17;;
58446;SDS011;44240;51.840;7.258;2024-02-16T12:09:58;5.95;;;2.95;;
58446;SDS011;44240;51.840;7.258;2024-02-16T12:12:26;5.47;;;2.92;;
58446;SDS011;44240;51.840;7.258;2024-02-16T12:14:53;4.63;;;3.10;;
58446;SDS011;44240;51.840;7.258;2024-02-16T12:17:20;6.00;;;3.05;;
58446;SDS011;44240;51.840;7.258;2024-02-16T12:19:47;4.15;;;3.00;;
58446;SDS011;44240;51.840;7.258;2024-02-16T12:22:18;6.03;;;3.15;;
58446;SDS011;44240;51.840;7.258;2024-02-16T12:24:45;6.47;;;3.20;;
58446;SDS011;44240;51.840;7.258;2024-02-16T12:27:13;8.60;;;3.38;;
58446;SDS011;44240;51.840;7.258;2024-02-16T12:29:41;6.85;;;3.67;;
58446;SDS011;44240;51.840;7.258;2024-02-16T12:32:07;10.13;;;4.35;;
58446;SDS011;44240;51.840;7.258;2024-02-16T12:34:37;7.70;;;3.90;;
58446;SDS011;44240;51.840;7.258;2024-02-16T12:37:05;7.22;;;2.97;;
58446;SDS011;44240;51.840;7.258;2024-02-16T12:39:34;5.45;;;3.22;;
58446;SDS011;44240;51.840;7.258;2024-02-16T12:42:01;5.75;;;3.50;;
58446;SDS011;44240;51.840;7.258;2024-02-16T12:44:29;8.38;;;3.42;;
58446;SDS011;44240;51.840;7.258;2024-02-16T12:46:56;5.82;;;3.08;;
58446;SDS011;44240;51.840;7.258;2024-02-16T12:49:23;6.45;;;3.72;;
58446;SDS011;44240;51.840;7.258;2024-02-16T12:51:50;8.68;;;3.85;;
58446;SDS011;44240;51.840;7.258;2024-02-16T12:54:18;5.88;;;3.33;;
58446;SDS011;44240;51.840;7.258;2024-02-16T12:56:49;6.07;;;3.97;;
58446;SDS011;44240;51.840;7.258;2024-02-16T12:59:17;6.30;;;3.47;;
58446;SDS011;44240;51.840;7.258;2024-02-16T13:01:44;5.43;;;3.50;;
58446;SDS011;44240;51.840;7.258;2024-02-16T13:04:12;5.85;;;3.78;;
58446;SDS011;44240;51.840;7.258;2024-02-16T13:06:47;8.75;;;3.42;;
58446;SDS011;44240;51.840;7.258;2024-02-16T13:09:14;5.65;;;3.80;;
58446;SDS011;44240;51.840;7.258;2024-02-16T13:11:41;8.27;;;3.92;;
58446;SDS011;44240;51.840;7.258;2024-02-16T13:14:08;7.45;;;4.05;;
58446;SDS011;44240;51.840;7.258;2024-02-16T13:16:34;8.52;;;3.92;;
58446;SDS011;44240;51.840;7.258;2024-02-16T13:19:01;7.90;;;3.75;;
58446;SDS011;44240;51.840;7.258;2024-02-16T13:21:29;7.68;;;4.15;;
58446;SDS011;44240;51.840;7.258;2024-02-16T13:23:56;8.70;;;3.85;;
58446;SDS011;44240;51.840;7.258;2024-02-16T13:26:24;9.65;;;4.35;;
58446;SDS011;44240;51.840;7.258;2024-02-16T13:28:50;8.48;;;4.90;;
58446;SDS011;44240;51.840;7.258;2024-02-16T13:31:18;10.95;;;4.45;;
58446;SDS011;44240;51.840;7.258;2024-02-16T13:33:45;6.13;;;4.53;;
58446;SDS011;44240;51.840;7.258;2024-02-16T13:36:12;8.15;;;4.90;;
58446;SDS011;44240;51.840;7.258;2024-02-16T13:38:39;9.63;;;5.13;;
58446;SDS011;44240;51.840;7.258;2024-02-16T13:41:05;9.55;;;5.68;;
58446;SDS011;44240;51.840;7.258;2024-02-16T13:43:32;8.00;;;5.10;;
58446;SDS011;44240;51.840;7.258;2024-02-16T13:45:59;8.57;;;5.35;;
58446;SDS011;44240;51.840;7.258;2024-02-16T13:48:26;9.60;;;5.80;;
58446;SDS011;44240;51.840;7.258;2024-02-16T13:50:53;7.80;;;5.90;;
58446;SDS011;44240;51.840;7.258;2024-02-16T13:53:22;9.18;;;6.03;;
58446;SDS011;44240;51.840;7.258;2024-02-16T13:55:49;7.28;;;6.00;;
58446;SDS011;44240;51.840;7.258;2024-02-16T13:58:16;9.85;;;6.22;;
58446;SDS011;44240;51.840;7.258;2024-02-16T14:00:43;12.63;;;6.95;;
58446;SDS011;44240;51.840;7.258;2024-02-16T14:03:12;10.50;;;6.65;;
58446;SDS011;44240;51.840;7.258;2024-02-16T14:05:41;11.88;;;7.18;;
58446;SDS011;44240;51.840;7.258;2024-02-16T14:08:12;13.23;;;8.15;;
58446;SDS011;44240;51.840;7.258;2024-02-16T14:10:41;14.05;;;8.07;;
58446;SDS011;44240;51.840;7.258;2024-02-16T14:13:07;11.52;;;7.65;;
58446;SDS011;44240;51.840;7.258;2024-02-16T14:15:35;9.70;;;7.22;;
58446;SDS011;44240;51.840;7.258;2024-02-16T14:18:02;12.23;;;7.57;;
58446;SDS011;44240;51.840;7.258;2024-02-16T14:20:39;11.93;;;7.95;;
58446;SDS011;44240;51.840;7.258;2024-02-16T14:23:06;12.90;;;8.30;;
58446;SDS011;44240;51.840;7.258;2024-02-16T14:25:34;11.30;;;6.75;;
58446;SDS011;44240;51.840;7.258;2024-02-16T14:28:04;9.82;;;7.20;;
58446;SDS011;44240;51.840;7.258;2024-02-16T14:30:32;13.38;;;7.82;;
58446;SDS011;44240;51.840;7.258;2024-02-16T14:33:00;10.93;;;6.45;;
58446;SDS011;44240;51.840;7.258;2024-02-16T14:35:27;12.50;;;8.70;;
58446;SDS011;44240;51.840;7.258;2024-02-16T14:37:54;13.38;;;8.18;;
58446;SDS011;44240;51.840;7.258;2024-02-16T14:40:21;14.10;;;8.82;;
58446;SDS011;44240;51.840;7.258;2024-02-16T14:42:47;13.35;;;9.00;;
58446;SDS011;44240;51.840;7.258;2024-02-16T14:45:14;14.27;;;8.65;;
58446;SDS011;44240;51.840;7.258;2024-02-16T14:47:47;13.05;;;7.53;;
58446;SDS011;44240;51.840;7.258;2024-02-16T14:50:15;12.90;;;8.35;;
58446;SDS011;44240;51.840;7.258;2024-02-16T14:52:42;14.57;;;7.90;;
58446;SDS011;44240;51.840;7.258;2024-02-16T14:55:10;11.13;;;7.75;;